Terminal Aerodrome Forecast
Issued by NWS

Home | Current Version | Previous Version | Text Only | Print | Product List | Glossary On
Versions: 1 2 3 4 5 6 7 8 9 10 11 12 13 14 15 16 17 18 19 20 21 22
000
FTUS42 KTAE 271127
TAFECP
TAF
KECP 271127Z 2712/2812 26005KT P6SM BKN017 OVC050
     FM271300 35010G15KT P6SM BKN015
     FM271800 34015G23KT P6SM SCT025 SCT250
     FM272300 32007KT P6SM SKC
     FM280600 33003KT P6SM SKC=

USA.gov is the U.S. government's official web portal to all federal, state and local government web resources and services.